CPD8 weather

CLOSED Hawkesbury (Windover Field) Airport
Hawkesbury, Ontario, Canada

Public forecast

Using degrees Celsius for public forecast. Weather courtesy of forecast.io.

Closest aviation weather report (METAR) to Hawkesbury (Windover Field) Airport

Report is more than 6 hours old.

Closest report is Ottawa / Gatineau Airport, 31.8 nm (58.9 km) W. Retrieved 2020/02/20 02:00 UTC (9 hours ago):

CYND 200200Z 00000KT 15SM SCT060 M17/M21 A3037 RMK SC3 LAST STFD OBS/NEXT 201200 UTC SLP291

Closest aviation forecast (TAF) to Hawkesbury (Windover Field) Airport

Forecast is more than 6 hours old.

Closest forecast is Ottawa / Gatineau Airport, 31.8 nm (58.9 km) W. Retrieved 2020-02-20 00:00 UTC (11 hours ago):

TAF CYND 192338Z 2000/2002 31007KT P6SM FEW050 RMK NXT FCST WILL BE ISSUED AT 201345Z